Time;durP1;ratioP1;P1;durP2;ratioP2;P2;SDS_P1;SDS_P2;PMS_P1;PMS_P2;Temp;Humidity;BMP_temperature;BMP_pressure;BME280_temperature;BME280_humidity;BME280_pressure;Samples;Min_cycle;Max_cycle;Signal;HPM_P1;HPM_P2
2023/05/14 00:00:43;;;;;;;1999.90;999.90;;;13.30;99.90;;;;;;5032008;28;20037;-79
2023/05/14 00:03:09;;;;;;;1999.90;999.90;;;13.30;99.90;;;;;;5031168;28;20037;-79
2023/05/14 00:05:34;;;;;;;1999.90;999.90;;;13.30;99.90;;;;;;5032396;28;20033;-75
2023/05/14 00:08:00;;;;;;;1999.90;999.90;;;13.30;99.90;;;;;;5032630;28;20527;-75
2023/05/14 00:10:26;;;;;;;1999.90;999.90;;;13.30;99.90;;;;;;5032491;28;20061;-79
2023/05/14 00:12:52;;;;;;;1999.90;999.90;;;13.30;99.90;;;;;;5031520;28;20040;-79
2023/05/14 00:15:18;;;;;;;1999.90;999.90;;;13.30;99.90;;;;;;5031452;28;20029;-79
2023/05/14 00:17:43;;;;;;;1999.90;999.90;;;13.30;99.90;;;;;;5032503;28;20021;-75
2023/05/14 00:20:11;;;;;;;1999.90;999.90;;;13.20;99.90;;;;;;5030865;28;20030;-75
2023/05/14 00:22:37;;;;;;;1999.90;999.90;;;13.20;99.90;;;;;;5032117;28;20018;-75
2023/05/14 00:25:04;;;;;;;1999.90;999.90;;;13.10;99.90;;;;;;5032436;28;20032;-78
2023/05/14 00:27:29;;;;;;;1999.90;999.90;;;13.10;99.90;;;;;;5032391;28;20042;-78
2023/05/14 00:29:55;;;;;;;1999.90;999.90;;;13.00;99.90;;;;;;5032677;28;20025;-78
2023/05/14 00:32:20;;;;;;;1999.90;999.90;;;13.00;99.90;;;;;;5032586;28;20104;-78
2023/05/14 00:34:46;;;;;;;1999.90;999.90;;;13.00;99.90;;;;;;5032317;28;20108;-75
2023/05/14 00:37:12;;;;;;;1999.90;999.90;;;13.00;99.90;;;;;;5032517;28;20056;-75
2023/05/14 00:39:37;;;;;;;1999.90;999.90;;;12.90;99.90;;;;;;5032208;28;20388;-78
2023/05/14 00:42:03;;;;;;;1999.90;999.90;;;12.90;99.90;;;;;;5032796;28;20029;-78
2023/05/14 00:44:29;;;;;;;1999.90;999.90;;;12.80;99.90;;;;;;5032286;28;20113;-78
2023/05/14 00:46:54;;;;;;;1999.90;999.90;;;12.80;99.90;;;;;;5033964;28;20026;-75
2023/05/14 00:49:20;;;;;;;1999.90;999.90;;;12.80;99.90;;;;;;5035855;28;20029;-75
2023/05/14 00:51:46;;;;;;;1999.90;999.90;;;12.80;99.90;;;;;;5035071;28;20511;-75
2023/05/14 00:54:15;;;;;;;1999.90;999.90;;;12.80;99.90;;;;;;5035331;28;20029;-75
2023/05/14 00:56:44;;;;;;;1999.90;999.90;;;12.80;99.90;;;;;;5035403;28;20559;-78
2023/05/14 00:59:09;;;;;;;1999.90;999.90;;;12.70;99.90;;;;;;5035347;28;20014;-75
2023/05/14 01:01:36;;;;;;;1999.90;999.90;;;12.70;99.90;;;;;;5035495;28;20048;-75
2023/05/14 01:04:02;;;;;;;1999.90;999.90;;;12.60;99.90;;;;;;5035292;28;20025;-78
2023/05/14 01:07:03;;;;;;;1999.90;999.90;;;12.60;99.90;;;;;;5034173;28;20034;-75
2023/05/14 01:09:53;;;;;;;1999.90;999.90;;;12.60;99.90;;;;;;4997715;28;20038;-78
2023/05/14 01:12:32;;;;;;;1999.90;999.90;;;12.60;99.90;;;;;;5033774;28;20480;-75
2023/05/14 01:15:05;;;;;;;1999.90;999.90;;;12.50;99.90;;;;;;5035243;28;20021;-75
2023/05/14 01:17:34;;;;;;;1999.90;999.90;;;12.50;99.90;;;;;;5035367;28;20037;-78
2023/05/14 01:20:01;;;;;;;1999.90;999.90;;;12.50;99.90;;;;;;5035531;28;20029;-78
2023/05/14 01:22:26;;;;;;;1999.90;999.90;;;12.40;99.90;;;;;;5035113;28;20037;-78
2023/05/14 01:24:52;;;;;;;1999.90;999.90;;;12.40;99.90;;;;;;5034810;28;20029;-78
2023/05/14 01:27:34;;;;;;;1999.90;999.90;;;12.40;99.90;;;;;;5033430;28;20025;-78
2023/05/14 01:30:22;;;;;;;1999.90;999.90;;;12.40;99.90;;;;;;5035168;28;20025;-78
2023/05/14 01:32:52;;;;;;;1999.90;999.90;;;12.40;99.90;;;;;;5049157;28;20279;-78
2023/05/14 01:35:19;;;;;;;1999.90;999.90;;;12.40;99.90;;;;;;5034852;28;20025;-78
2023/05/14 01:37:46;;;;;;;1999.90;999.90;;;12.40;99.90;;;;;;5034880;28;20096;-74
2023/05/14 01:40:12;;;;;;;1999.90;999.90;;;12.40;99.90;;;;;;5035003;28;20080;-75
2023/05/14 01:42:38;;;;;;;1999.90;999.90;;;12.50;99.90;;;;;;5034847;28;20017;-75
2023/05/14 01:45:04;;;;;;;1999.90;999.90;;;12.50;99.90;;;;;;5034339;28;20064;-78
2023/05/14 01:47:30;;;;;;;1999.90;999.90;;;12.50;99.90;;;;;;5034717;28;20026;-75
2023/05/14 01:49:55;;;;;;;1999.90;999.90;;;12.40;99.90;;;;;;5035118;28;20072;-78
2023/05/14 01:52:21;;;;;;;1999.90;999.90;;;12.30;99.90;;;;;;5033142;28;20436;-75
2023/05/14 01:54:47;;;;;;;1999.90;999.90;;;12.40;99.90;;;;;;5033879;28;20030;-78
2023/05/14 01:57:13;;;;;;;1999.90;999.90;;;12.40;99.90;;;;;;5034339;28;20028;-78
2023/05/14 01:59:38;;;;;;;1999.90;999.90;;;12.30;99.90;;;;;;5033910;28;20025;-78
2023/05/14 02:02:04;;;;;;;1999.90;999.90;;;12.30;99.90;;;;;;5034521;28;20022;-78
2023/05/14 02:04:30;;;;;;;1999.90;999.90;;;12.30;99.90;;;;;;5034878;28;20025;-74
2023/05/14 02:06:55;;;;;;;1999.90;999.90;;;12.20;99.90;;;;;;5034310;28;20055;-75
2023/05/14 02:09:21;;;;;;;1999.90;999.90;;;12.20;99.90;;;;;;5019378;28;20054;-78
2023/05/14 02:11:47;;;;;;;1999.90;999.90;;;12.20;99.90;;;;;;5014514;28;20022;-78
2023/05/14 02:14:14;;;;;;;1999.90;999.90;;;12.10;99.90;;;;;;5013415;28;20030;-78
2023/05/14 02:16:39;;;;;;;1999.90;999.90;;;12.10;99.90;;;;;;5014234;28;20477;-75
2023/05/14 02:19:05;;;;;;;1999.90;999.90;;;12.00;99.90;;;;;;5014382;28;20037;-75
2023/05/14 02:21:30;;;;;;;1999.90;999.90;;;12.00;99.90;;;;;;5014180;28;20033;-78
2023/05/14 02:23:56;;;;;;;1999.90;999.90;;;12.00;99.90;;;;;;5014418;28;20018;-78
2023/05/14 02:26:22;;;;;;;1999.90;999.90;;;12.00;99.90;;;;;;5014453;28;20026;-75
2023/05/14 02:28:47;;;;;;;1999.90;999.90;;;11.90;99.90;;;;;;5014297;28;20041;-78
2023/05/14 02:31:13;;;;;;;1999.90;999.90;;;11.90;99.90;;;;;;5012621;28;20120;-75
2023/05/14 02:33:39;;;;;;;1999.90;999.90;;;11.90;99.90;;;;;;5014134;28;20034;-75
2023/05/14 02:36:04;;;;;;;1999.90;999.90;;;11.80;99.90;;;;;;5014041;28;20537;-78
2023/05/14 02:38:30;;;;;;;1999.90;999.90;;;11.80;99.90;;;;;;5013221;28;20512;-78
2023/05/14 02:40:56;;;;;;;1999.90;999.90;;;11.80;99.90;;;;;;5014136;28;20026;-78
2023/05/14 02:43:21;;;;;;;1999.90;999.90;;;11.70;99.90;;;;;;5013552;28;20026;-75
2023/05/14 02:45:47;;;;;;;1999.90;999.90;;;11.70;99.90;;;;;;5028064;28;20026;-78
2023/05/14 02:48:13;;;;;;;1999.90;999.90;;;11.60;99.90;;;;;;5033545;28;20040;-78
2023/05/14 02:50:38;;;;;;;1999.90;999.90;;;11.60;99.90;;;;;;5033798;28;20017;-78
2023/05/14 02:53:04;;;;;;;1999.90;999.90;;;11.60;99.90;;;;;;5033501;28;20033;-78
2023/05/14 02:55:29;;;;;;;1999.90;999.90;;;11.50;99.90;;;;;;5032404;28;20109;-75
2023/05/14 02:57:56;;;;;;;1999.90;999.90;;;11.50;99.90;;;;;;5033498;28;20041;-75
2023/05/14 03:00:22;;;;;;;1999.90;999.90;;;11.40;99.90;;;;;;5033337;28;20056;-74
2023/05/14 03:02:48;;;;;;;1999.90;999.90;;;11.40;99.90;;;;;;5033578;28;20033;-78
2023/05/14 03:05:13;;;;;;;1999.90;999.90;;;11.40;99.90;;;;;;5033784;28;20091;-78
2023/05/14 03:07:39;;;;;;;1999.90;999.90;;;11.30;99.90;;;;;;5032145;28;20029;-78
2023/05/14 03:10:05;;;;;;;1999.90;999.90;;;11.30;99.90;;;;;;5012188;28;20026;-78
2023/05/14 03:12:31;;;;;;;1999.90;999.90;;;11.20;99.90;;;;;;5013656;28;20030;-74
2023/05/14 03:14:56;;;;;;;1999.90;999.90;;;11.20;99.90;;;;;;5013606;28;20018;-78
2023/05/14 03:17:22;;;;;;;1999.90;999.90;;;11.10;99.90;;;;;;5013959;28;20034;-78
2023/05/14 03:19:47;;;;;;;1999.90;999.90;;;11.10;99.90;;;;;;5012148;28;20028;-78
2023/05/14 03:22:13;;;;;;;1999.90;999.90;;;11.00;99.90;;;;;;5013316;28;20025;-75
2023/05/14 03:24:39;;;;;;;1999.90;999.90;;;11.00;99.90;;;;;;5013566;28;20036;-75
2023/05/14 03:27:05;;;;;;;1999.90;999.90;;;10.90;99.90;;;;;;5013645;28;20030;-78
2023/05/14 03:29:31;;;;;;;1999.90;999.90;;;10.90;99.90;;;;;;5013857;28;20384;-78
2023/05/14 03:31:56;;;;;;;1999.90;999.90;;;10.90;99.90;;;;;;5013055;28;20038;-78
2023/05/14 03:34:22;;;;;;;1999.90;999.90;;;10.80;99.90;;;;;;5013347;28;20084;-78
2023/05/14 03:36:48;;;;;;;1999.90;999.90;;;10.80;99.90;;;;;;5013491;28;20097;-75
2023/05/14 03:39:18;;;;;;;1999.90;999.90;;;10.80;99.90;;;;;;5013151;28;20026;-75
2023/05/14 03:41:45;;;;;;;1999.90;999.90;;;10.70;99.90;;;;;;5013578;28;20473;-75
2023/05/14 03:44:11;;;;;;;1999.90;999.90;;;10.70;99.90;;;;;;5013842;28;20045;-75
2023/05/14 03:46:37;;;;;;;1999.90;999.90;;;10.70;99.90;;;;;;5032529;28;20060;-75
2023/05/14 03:49:02;;;;;;;1999.90;999.90;;;10.70;99.90;;;;;;5032743;28;20037;-75
2023/05/14 03:51:28;;;;;;;1999.90;999.90;;;10.60;99.90;;;;;;5033275;28;20063;-75
2023/05/14 03:53:54;;;;;;;1999.90;999.90;;;10.60;99.90;;;;;;5032433;28;20060;-78
2023/05/14 03:56:20;;;;;;;1999.90;999.90;;;10.60;99.90;;;;;;5031794;28;20053;-78
2023/05/14 03:58:45;;;;;;;1999.90;999.90;;;10.60;99.90;;;;;;5032414;28;20025;-78
2023/05/14 04:01:11;;;;;;;1999.90;999.90;;;10.60;99.90;;;;;;5032294;28;20385;-77
2023/05/14 04:03:36;;;;;;;1999.90;999.90;;;10.50;99.90;;;;;;5032862;28;20026;-78
2023/05/14 04:06:02;;;;;;;1999.90;999.90;;;10.50;99.90;;;;;;5031357;28;20500;-77
2023/05/14 04:08:27;;;;;;;1999.90;999.90;;;10.50;99.90;;;;;;5032594;28;20033;-78
2023/05/14 04:10:53;;;;;;;1999.90;999.90;;;10.50;99.90;;;;;;5032540;28;20029;-78
2023/05/14 04:13:19;;;;;;;1999.90;999.90;;;10.40;99.90;;;;;;5032780;28;20495;-78
2023/05/14 04:15:44;;;;;;;1999.90;999.90;;;10.40;99.90;;;;;;5047832;28;20036;-75
2023/05/14 04:18:10;;;;;;;1999.90;999.90;;;10.40;99.90;;;;;;5032959;28;20033;-78
2023/05/14 04:20:36;;;;;;;1999.90;999.90;;;10.40;99.90;;;;;;5032567;28;20056;-78
2023/05/14 04:23:01;;;;;;;1999.90;999.90;;;10.40;99.90;;;;;;5034900;28;20407;-78
2023/05/14 04:25:27;;;;;;;1999.90;999.90;;;10.40;99.90;;;;;;5035557;28;20072;-78
2023/05/14 04:27:53;;;;;;;1999.90;999.90;;;10.30;99.90;;;;;;5035059;28;20065;-75
2023/05/14 04:30:18;;;;;;;1999.90;999.90;;;10.30;99.90;;;;;;5036448;28;20076;-75
2023/05/14 04:32:44;;;;;;;1999.90;999.90;;;10.30;99.90;;;;;;5036296;28;20147;-78
2023/05/14 04:35:11;;;;;;;1999.90;999.90;;;10.30;99.90;;;;;;5036067;28;20029;-75
2023/05/14 04:37:36;;;;;;;1999.90;999.90;;;10.30;99.90;;;;;;5036250;28;20047;-79
2023/05/14 04:40:02;;;;;;;1999.90;999.90;;;10.30;99.90;;;;;;5036603;28;20096;-75
2023/05/14 04:42:28;;;;;;;1999.90;999.90;;;10.30;99.90;;;;;;5036348;28;20076;-75
2023/05/14 04:44:54;;;;;;;1999.90;999.90;;;10.20;99.90;;;;;;5035379;28;20557;-75
2023/05/14 04:47:19;;;;;;;1999.90;999.90;;;10.30;99.90;;;;;;5035527;28;20025;-79
2023/05/14 04:49:45;;;;;;;1999.90;999.90;;;10.30;99.90;;;;;;5036282;28;20053;-78
2023/05/14 04:52:11;;;;;;;1999.90;999.90;;;10.30;99.90;;;;;;5036121;28;20078;-79
2023/05/14 04:54:36;;;;;;;1999.90;999.90;;;10.30;99.90;;;;;;5035683;28;20033;-75
2023/05/14 04:57:02;;;;;;;1999.90;999.90;;;10.30;99.90;;;;;;5034771;28;20465;-75
2023/05/14 04:59:29;;;;;;;1999.90;999.90;;;10.30;99.90;;;;;;5035295;28;20026;-78
2023/05/14 05:01:54;;;;;;;1999.90;999.90;;;10.30;99.90;;;;;;5035527;28;20048;-79
2023/05/14 05:04:22;;;;;;;1999.90;999.90;;;10.30;99.90;;;;;;5035705;28;20485;-79
2023/05/14 05:06:48;;;;;;;1999.90;999.90;;;10.30;99.90;;;;;;5035756;28;20032;-75
2023/05/14 05:09:15;;;;;;;1999.90;999.90;;;10.30;99.90;;;;;;5035392;28;20037;-75
2023/05/14 05:11:40;;;;;;;1999.90;999.90;;;10.40;99.90;;;;;;5035196;28;20072;-78
2023/05/14 05:14:06;;;;;;;1999.90;999.90;;;10.40;99.90;;;;;;5034967;28;20037;-79
2023/05/14 05:16:31;;;;;;;1999.90;999.90;;;10.30;99.90;;;;;;5035436;28;20041;-75
2023/05/14 05:18:57;;;;;;;1999.90;999.90;;;10.30;99.90;;;;;;5035451;28;20029;-75
2023/05/14 05:21:23;;;;;;;1999.90;999.90;;;10.40;99.90;;;;;;5035435;28;20104;-75
2023/05/14 05:23:49;;;;;;;1999.90;999.90;;;10.40;99.90;;;;;;5035104;28;20392;-75
2023/05/14 05:26:15;;;;;;;1999.90;999.90;;;10.40;99.90;;;;;;5035693;28;20026;-78
2023/05/14 05:28:41;;;;;;;1999.90;999.90;;;10.40;99.90;;;;;;5035431;28;20420;-78
2023/05/14 05:31:06;;;;;;;1999.90;999.90;;;10.40;99.90;;;;;;5035692;28;20113;-78
2023/05/14 05:33:33;;;;;;;1999.90;999.90;;;10.40;99.90;;;;;;5033956;28;20021;-75
2023/05/14 05:35:59;;;;;;;1999.90;999.90;;;10.40;99.90;;;;;;5034863;28;20495;-75
2023/05/14 05:38:25;;;;;;;1999.90;999.90;;;10.40;99.90;;;;;;5035245;28;20021;-78
2023/05/14 05:40:51;;;;;;;1999.90;999.90;;;10.50;99.90;;;;;;5035276;28;20029;-78
2023/05/14 05:43:16;;;;;;;1999.90;999.90;;;10.50;99.90;;;;;;5034833;28;20391;-78
2023/05/14 05:45:42;;;;;;;1999.90;999.90;;;10.60;99.90;;;;;;5035065;28;20035;-78
2023/05/14 05:48:08;;;;;;;1999.90;999.90;;;10.60;99.90;;;;;;5034764;28;20021;-75
2023/05/14 05:50:33;;;;;;;1999.90;999.90;;;10.70;99.90;;;;;;5034780;28;20021;-78
2023/05/14 05:52:59;;;;;;;1999.90;999.90;;;10.70;99.90;;;;;;5034705;28;20060;-78
2023/05/14 05:55:25;;;;;;;1999.90;999.90;;;10.80;99.90;;;;;;5034596;28;20053;-78
2023/05/14 05:57:50;;;;;;;1999.90;999.90;;;10.80;99.90;;;;;;5033912;28;20064;-78
2023/05/14 06:00:16;;;;;;;1999.90;999.90;;;10.90;99.90;;;;;;5034530;28;20029;-75
2023/05/14 06:02:42;;;;;;;1999.90;999.90;;;10.90;99.90;;;;;;5034749;28;20033;-75
2023/05/14 06:05:09;;;;;;;1999.90;999.90;;;10.90;99.90;;;;;;5034282;28;20396;-78
2023/05/14 06:07:35;;;;;;;1999.90;999.90;;;11.00;99.90;;;;;;5034744;28;20026;-78
2023/05/14 06:10:01;;;;;;;1999.90;999.90;;;11.10;99.90;;;;;;5034254;28;20489;-79
2023/05/14 06:12:26;;;;;;;1999.90;999.90;;;11.10;99.90;;;;;;5034334;28;20033;-75
2023/05/14 06:14:54;;;;;;;1999.90;999.90;;;11.20;99.90;;;;;;5034117;28;20029;-75
2023/05/14 06:17:20;;;;;;;1999.90;999.90;;;11.20;99.90;;;;;;5034326;28;20083;-75
2023/05/14 06:19:46;;;;;;;1999.90;999.90;;;11.20;99.90;;;;;;5034491;28;20053;-78
2023/05/14 06:22:11;;;;;;;1999.90;999.90;;;11.30;99.90;;;;;;5050110;28;20083;-78
2023/05/14 06:24:37;;;;;;;1999.90;999.90;;;11.40;99.90;;;;;;5033809;28;20018;-78
2023/05/14 06:27:03;;;;;;;1999.90;999.90;;;11.40;99.90;;;;;;5033784;28;20052;-75
2023/05/14 06:29:28;;;;;;;1999.90;999.90;;;11.50;99.90;;;;;;5034361;28;20377;-78
2023/05/14 06:32:00;;;;;;;1999.90;999.90;;;11.60;99.90;;;;;;5033906;28;20104;-75
2023/05/14 06:34:25;;;;;;;1999.90;999.90;;;11.70;99.90;;;;;;5032489;28;20029;-75
2023/05/14 06:36:51;;;;;;;1999.90;999.90;;;11.70;99.90;;;;;;5033838;28;20084;-79
2023/05/14 06:39:16;;;;;;;1999.90;999.90;;;11.80;99.90;;;;;;5032329;28;20436;-75
2023/05/14 06:41:42;;;;;;;1999.90;999.90;;;11.80;99.90;;;;;;5034181;28;20018;-78
2023/05/14 06:44:08;;;;;;;1999.90;999.90;;;11.90;99.90;;;;;;5033365;28;20042;-79
2023/05/14 06:46:33;;;;;;;1999.90;999.90;;;11.90;99.90;;;;;;5033521;28;20026;-75
2023/05/14 06:48:59;;;;;;;1999.90;999.90;;;12.10;99.90;;;;;;5033811;28;20026;-75
2023/05/14 06:51:24;;;;;;;1999.90;999.90;;;12.10;99.90;;;;;;5033582;28;20155;-75
2023/05/14 06:53:51;;;;;;;1999.90;999.90;;;12.30;99.90;;;;;;5033522;28;20033;-75
2023/05/14 06:56:17;;;;;;;1999.90;999.90;;;12.40;99.90;;;;;;5033505;28;20028;-78
2023/05/14 06:58:42;;;;;;;1999.90;999.90;;;12.70;99.90;;;;;;5032806;28;20018;-78
2023/05/14 07:01:08;;;;;;;1999.90;999.90;;;12.70;99.90;;;;;;5031989;28;20066;-78
2023/05/14 07:03:33;;;;;;;1999.90;999.90;;;12.60;99.90;;;;;;5033190;28;20064;-75
2023/05/14 07:05:59;;;;;;;1999.90;999.90;;;12.90;99.90;;;;;;5033529;28;20552;-75
2023/05/14 07:08:25;;;;;;;1999.90;999.90;;;12.90;99.90;;;;;;5033442;28;20036;-78
2023/05/14 07:10:50;;;;;;;1999.90;999.90;;;13.20;99.90;;;;;;5033226;28;20059;-78
2023/05/14 07:13:16;;;;;;;1999.90;999.90;;;13.20;99.90;;;;;;5033109;28;20108;-78
2023/05/14 07:15:41;;;;;;;1999.90;999.90;;;13.10;99.90;;;;;;5031591;28;20053;-79
2023/05/14 07:18:07;;;;;;;1999.90;999.90;;;13.50;99.90;;;;;;5033091;28;20034;-75
2023/05/14 07:20:33;;;;;;;1999.90;999.90;;;13.90;99.90;;;;;;5032527;28;20433;-75
2023/05/14 07:22:58;;;;;;;1999.90;999.90;;;13.90;99.90;;;;;;5033447;28;20084;-79
2023/05/14 07:25:24;;;;;;;1999.90;999.90;;;13.90;99.90;;;;;;5031812;28;20055;-79
2023/05/14 07:27:49;;;;;;;1999.90;999.90;;;14.00;99.90;;;;;;5032977;28;20030;-75
2023/05/14 07:30:15;;;;;;;1999.90;999.90;;;14.10;99.90;;;;;;5033582;28;20029;-75
2023/05/14 07:32:41;;;;;;;1999.90;999.90;;;14.00;99.90;;;;;;5033008;28;20034;-75
2023/05/14 07:35:06;;;;;;;1999.90;999.90;;;14.10;99.90;;;;;;5032758;28;20025;-78
2023/05/14 07:37:32;;;;;;;1999.90;999.90;;;14.00;99.90;;;;;;5032738;28;20029;-79
2023/05/14 07:39:58;;;;;;;1999.90;999.90;;;14.40;99.90;;;;;;5032973;28;20033;-79
2023/05/14 07:42:24;;;;;;;1999.90;999.90;;;15.80;99.90;;;;;;5031660;28;20030;-75
2023/05/14 07:44:50;;;;;;;1999.90;999.90;;;18.20;99.90;;;;;;5032684;28;20117;-76
2023/05/14 07:47:16;;;;;;;1999.90;999.90;;;18.10;99.90;;;;;;5032756;28;20033;-79
2023/05/14 07:49:41;;;;;;;1999.90;999.90;;;17.30;99.90;;;;;;5032769;28;20084;-79
2023/05/14 07:52:07;;;;;;;1999.90;999.90;;;16.50;99.90;;;;;;5031568;28;20493;-79
2023/05/14 07:54:33;;;;;;;1999.90;999.90;;;16.70;99.90;;;;;;5032417;28;20025;-79
2023/05/14 07:56:58;;;;;;;1999.90;999.90;;;16.30;99.90;;;;;;5034832;28;20117;-78
2023/05/14 07:59:24;;;;;;;1999.90;999.90;;;15.60;99.90;;;;;;5034462;28;20061;-75
2023/05/14 08:01:50;;;;;;;1999.90;999.90;;;15.30;99.90;;;;;;5036575;28;20060;-79
2023/05/14 08:04:16;;;;;;;1999.90;999.90;;;14.90;99.90;;;;;;5036900;28;20053;-78
2023/05/14 08:06:42;;;;;;;1999.90;999.90;;;14.70;99.90;;;;;;5036634;28;20060;-75
2023/05/14 08:09:08;;;;;;;1999.90;999.90;;;14.80;99.90;;;;;;5036726;28;20060;-78
2023/05/14 08:11:34;;;;;;;1999.90;999.90;;;14.80;99.90;;;;;;5036638;28;20444;-79
2023/05/14 08:13:59;;;;;;;1999.90;999.90;;;14.60;99.90;;;;;;5036440;28;20030;-78
2023/05/14 08:16:25;;;;;;;1999.90;999.90;;;14.50;99.90;;;;;;5035032;28;20029;-79
2023/05/14 08:18:51;;;;;;;1999.90;999.90;;;14.60;99.90;;;;;;5036711;28;20028;-79
2023/05/14 08:21:16;;;;;;;1999.90;999.90;;;14.40;99.90;;;;;;5036624;28;20350;-78
2023/05/14 08:23:42;;;;;;;1999.90;999.90;;;14.50;99.90;;;;;;5036463;28;20025;-75
2023/05/14 08:26:08;;;;;;;1999.90;999.90;;;14.30;99.90;;;;;;5036449;28;20526;-75
2023/05/14 08:28:34;;;;;;;1999.90;999.90;;;14.20;99.90;;;;;;5036364;28;20026;-78
2023/05/14 08:30:59;;;;;;;1999.90;999.90;;;14.20;99.90;;;;;;5035908;28;20029;-78
2023/05/14 08:33:25;;;;;;;1999.90;999.90;;;14.40;99.90;;;;;;5034922;28;20461;-79
2023/05/14 08:35:52;;;;;;;1999.90;999.90;;;14.90;99.90;;;;;;5036120;28;20112;-75
2023/05/14 08:38:18;;;;;;;1999.90;999.90;;;15.00;99.90;;;;;;5036315;28;20037;-75
2023/05/14 08:40:53;;;;;;;1999.90;999.90;;;15.10;99.90;;;;;;5036105;28;20021;-79
2023/05/14 08:43:23;;;;;;;1999.90;999.90;;;15.30;99.90;;;;;;5035920;28;20393;-79
2023/05/14 08:45:52;;;;;;;1999.90;999.90;;;15.30;99.90;;;;;;5035356;28;20497;-79
2023/05/14 08:48:21;;;;;;;1999.90;999.90;;;15.50;99.90;;;;;;5035853;28;20460;-75
2023/05/14 08:50:46;;;;;;;1999.90;999.90;;;15.60;99.90;;;;;;5035634;28;20025;-75
2023/05/14 08:53:12;;;;;;;1999.90;999.90;;;15.70;99.90;;;;;;5035672;28;20083;-79
2023/05/14 08:55:38;;;;;;;1999.90;999.90;;;15.40;99.90;;;;;;5034321;28;20034;-79
2023/05/14 08:58:03;;;;;;;1999.90;999.90;;;15.60;99.90;;;;;;5035731;28;20109;-79
2023/05/14 09:00:29;;;;;;;1999.90;999.90;;;15.50;99.90;;;;;;5034708;28;20025;-76
2023/05/14 09:02:55;;;;;;;1999.90;999.90;;;15.50;99.90;;;;;;5035752;28;20026;-79
2023/05/14 09:05:22;;;;;;;1999.90;999.90;;;15.60;99.90;;;;;;5036191;28;20021;-79
2023/05/14 09:07:48;;;;;;;1999.90;999.90;;;15.60;99.90;;;;;;5031757;28;20029;-75
2023/05/14 09:10:15;;;;;;;1999.90;999.90;;;15.50;99.90;;;;;;5015647;28;20068;-79
2023/05/14 09:12:40;;;;;;;1999.90;999.90;;;15.50;99.90;;;;;;5015818;28;20018;-78
2023/05/14 09:15:06;;;;;;;1999.90;999.90;;;15.80;99.90;;;;;;5015514;28;20026;-75
2023/05/14 09:17:33;;;;;;;1999.90;999.90;;;15.90;99.90;;;;;;5015594;28;20026;-79
2023/05/14 09:19:59;;;;;;;1999.90;999.90;;;17.20;99.90;;;;;;5015315;28;20022;-79
2023/05/14 09:22:30;;;;;;;1999.90;999.90;;;17.30;99.90;;;;;;5014329;28;20363;-75
2023/05/14 09:25:08;;;;;;;1999.90;999.90;;;17.10;99.90;;;;;;5015228;28;20026;-79
2023/05/14 09:27:35;;;;;;;1999.90;999.90;;;16.70;99.90;;;;;;5015559;28;20014;-75
2023/05/14 09:30:18;;;;;;;1999.90;999.90;;;17.00;99.90;;;;;;5015660;28;20022;-79
2023/05/14 09:32:44;;;;;;;1999.90;999.90;;;18.10;99.90;;;;;;5014934;28;20076;-75
2023/05/14 09:35:17;;;;;;;1999.90;999.90;;;17.90;99.90;;;;;;5015355;28;20033;-78
2023/05/14 09:37:45;;;;;;;;;;;17.40;99.90;;;;;;5015447;28;20022;-75
2023/05/14 09:40:12;;;;;;;1999.90;999.90;;;16.80;99.90;;;;;;5015451;28;19949;-76
2023/05/14 09:42:37;;;;;;;1999.90;999.90;;;16.90;99.90;;;;;;5015070;28;20037;-76
2023/05/14 09:45:03;;;;;;;1999.90;999.90;;;17.10;99.90;;;;;;5022975;28;20124;-79
2023/05/14 09:47:30;;;;;;;1999.90;999.90;;;17.80;99.90;;;;;;5034681;28;20104;-79
2023/05/14 09:49:56;;;;;;;1999.90;999.90;;;18.30;99.90;;;;;;5034637;28;20056;-79
2023/05/14 09:52:25;;;;;;;1999.90;999.90;;;17.90;99.90;;;;;;5034562;28;20025;-75
2023/05/14 09:54:52;;;;;;;1999.90;999.90;;;17.90;99.90;;;;;;5034605;28;20037;-75
2023/05/14 09:57:18;;;;;;;1999.90;999.90;;;18.00;99.90;;;;;;5034289;28;20021;-75
2023/05/14 09:59:44;;;;;;;1999.90;999.90;;;18.20;99.90;;;;;;5034176;28;20025;-79
2023/05/14 10:02:25;;;;;;;1999.90;999.90;;;18.70;99.90;;;;;;5034094;28;20400;-80
2023/05/14 10:04:53;;;;;;;1999.90;999.90;;;18.50;99.90;;;;;;5034863;28;20029;-79
2023/05/14 10:07:36;;;;;;;1999.90;999.90;;;19.40;99.90;;;;;;5033031;28;20030;-80
2023/05/14 10:10:06;;;;;;;1999.90;999.90;;;20.70;99.90;;;;;;5014364;28;20054;-76
2023/05/14 10:12:39;;;;;;;1999.90;999.90;;;22.60;99.90;;;;;;5029663;28;20117;-80
2023/05/14 10:15:15;;;;;;;1999.90;999.90;;;24.20;99.90;;;;;;5014444;28;20113;-75
2023/05/14 10:17:44;;;;;;;1999.90;999.90;;;24.00;99.90;;;;;;5014682;28;20485;-74
2023/05/14 10:20:15;;;;;;;1999.90;999.90;;;23.00;99.90;;;;;;5013711;28;20477;-78
2023/05/14 10:22:41;;;;;;;1999.90;999.90;;;23.10;99.90;;;;;;5014210;28;20018;-78
2023/05/14 10:25:08;;;;;;;1999.90;999.90;;;22.30;99.90;;;;;;5028845;28;20423;-78
2023/05/14 10:27:34;;;;;;;1999.90;999.90;;;23.30;99.90;;;;;;5014378;28;20026;-78
2023/05/14 10:29:59;;;;;;;1999.90;999.90;;;22.90;99.90;;;;;;5014611;28;20052;-78
2023/05/14 10:32:25;;;;;;;1999.90;999.90;;;24.00;99.90;;;;;;5025247;28;20079;-78
2023/05/14 10:34:52;;;;;;;1999.90;999.90;;;24.00;99.90;;;;;;5033823;28;20220;-74
2023/05/14 10:37:19;;;;;;;1999.90;999.90;;;23.20;99.90;;;;;;5033646;28;20108;-74
2023/05/14 10:39:49;;;;;;;1999.90;999.90;;;24.50;99.90;;;;;;5034111;28;20100;-78
2023/05/14 10:42:18;;;;;;;1999.90;999.90;;;25.40;99.90;;;;;;5033949;28;20025;-78
2023/05/14 10:44:51;;;;;;;1999.90;999.90;;;25.60;99.90;;;;;;5032024;28;20045;-74
2023/05/14 10:47:17;;;;;;;1999.90;999.90;;;26.00;99.90;;;;;;5033444;28;20109;-74
2023/05/14 10:49:47;;;;;;;1999.90;999.90;;;25.40;99.90;;;;;;5033393;28;20447;-78
2023/05/14 10:52:18;;;;;;;1999.90;999.90;;;25.20;99.90;;;;;;5032824;28;20029;-78
2023/05/14 10:54:53;;;;;;;1999.90;999.90;;;24.50;99.90;;;;;;5013600;28;20095;-74
2023/05/14 10:57:21;;;;;;;1999.90;999.90;;;25.40;99.90;;;;;;5013622;28;20481;-79
2023/05/14 10:59:54;;;;;;;1999.90;999.90;;;25.50;99.90;;;;;;5013659;28;20025;-74
2023/05/14 11:02:22;;;;;;;1999.90;999.90;;;25.10;99.90;;;;;;5030728;28;20025;-74
2023/05/14 11:04:57;;;;;;;1999.90;999.90;;;25.40;99.90;;;;;;5033158;28;20025;-79
2023/05/14 11:07:27;;;;;;;1999.90;999.90;;;26.00;99.90;;;;;;5032001;28;20025;-75
2023/05/14 11:09:55;;;;;;;1999.90;999.90;;;26.50;99.90;;;;;;5014106;28;20440;-74
2023/05/14 11:12:21;;;;;;;1999.90;999.90;;;26.40;99.90;;;;;;5013423;28;20032;-74
2023/05/14 11:14:47;;;;;;;1999.90;999.90;;;26.70;99.90;;;;;;5013497;28;20460;-74
2023/05/14 11:17:13;;;;;;;1999.90;999.90;;;26.80;99.90;;;;;;5012265;28;20079;-79
2023/05/14 11:19:42;;;;;;;1999.90;999.90;;;26.50;99.90;;;;;;5013141;28;20104;-79
2023/05/14 11:22:08;;;;;;;1999.90;999.90;;;25.90;99.90;;;;;;5013526;28;20049;-74
2023/05/14 11:24:33;;;;;;;1999.90;999.90;;;24.40;99.90;;;;;;5013014;28;20049;-73
2023/05/14 11:26:59;;;;;;;1999.90;999.90;;;22.40;99.90;;;;;;5013283;28;20045;-78
2023/05/14 11:29:25;;;;;;;1999.90;999.90;;;22.30;99.90;;;;;;5013435;28;20026;-78
2023/05/14 11:31:50;;;;;;;1999.90;999.90;;;23.80;99.90;;;;;;5013512;28;20038;-78
2023/05/14 11:34:16;;;;;;;1999.90;999.90;;;24.00;99.90;;;;;;5013480;28;20029;-78
2023/05/14 11:36:42;;;;;;;1999.90;999.90;;;23.90;99.90;;;;;;5012935;28;20038;-74
2023/05/14 11:39:08;;;;;;;1999.90;999.90;;;24.70;99.90;;;;;;5011963;28;20489;-74
2023/05/14 11:41:33;;;;;;;1999.90;999.90;;;25.00;99.90;;;;;;5013580;28;20022;-79
2023/05/14 11:43:59;;;;;;;1999.90;999.90;;;25.50;99.90;;;;;;5011808;28;20038;-79
2023/05/14 11:46:25;;;;;;;1999.90;999.90;;;25.90;99.90;;;;;;5032257;28;20040;-79
2023/05/14 11:48:50;;;;;;;1999.90;999.90;;;26.10;99.90;;;;;;5031221;28;20071;-78
2023/05/14 11:51:16;;;;;;;1999.90;999.90;;;26.20;99.90;;;;;;5032967;28;20083;-74
2023/05/14 11:53:41;;;;;;;1999.90;999.90;;;25.50;99.90;;;;;;5032617;28;20031;-79
2023/05/14 11:56:07;;;;;;;1999.90;999.90;;;25.00;99.90;;;;;;5032891;28;20036;-79